createdAt,value
2023-04-03T00:03:09.647Z,95581.44
2023-04-03T00:08:12.095Z,95570.72
2023-04-03T00:13:15.074Z,95567.69
2023-04-03T00:18:17.385Z,95560.50
2023-04-03T00:23:19.932Z,95566.19
2023-04-03T00:28:22.621Z,95589.25
2023-04-03T00:33:25.802Z,95523.50
2023-04-03T00:38:28.002Z,95586.22
2023-04-03T00:43:30.657Z,95592.06
2023-04-03T00:48:46.214Z,95576.31
2023-04-03T00:54:02.518Z,95578.31
2023-04-03T00:59:14.217Z,95609.50
2023-04-03T01:04:34.476Z,95551.72
2023-04-03T01:09:37.997Z,95599.09
2023-04-03T01:14:40.691Z,95594.41
2023-04-03T01:19:47.194Z,95584.69
2023-04-03T01:24:49.629Z,95594.94
2023-04-03T01:29:52.127Z,95589.38
2023-04-03T01:34:54.360Z,95579.13
2023-04-03T01:39:57.246Z,95607.72
2023-04-03T01:44:59.794Z,95591.75
2023-04-03T01:50:02.384Z,95595.69
2023-04-03T01:55:08.821Z,95611.53
2023-04-03T02:00:11.833Z,95603.41
2023-04-03T02:05:17.863Z,95615.53
2023-04-03T02:10:20.111Z,95623.22
2023-04-03T02:15:22.503Z,95620.31
2023-04-03T02:20:25.037Z,95602.28
2023-04-03T02:25:27.591Z,95619.72
2023-04-03T02:30:29.934Z,95608.34
2023-04-03T02:35:32.161Z,95623.50
2023-04-03T02:40:35.420Z,95623.03
2023-04-03T02:45:37.955Z,95613.41
2023-04-03T02:50:40.240Z,95644.69
2023-04-03T02:55:42.992Z,95617.50
2023-04-03T03:00:50.697Z,95632.28
2023-04-03T03:06:03.483Z,95649.16
2023-04-03T03:11:06.721Z,95610.47
2023-04-03T03:16:09.741Z,95611.31
2023-04-03T03:21:18.744Z,95621.72
2023-04-03T03:26:21.394Z,95630.41
2023-04-03T03:31:23.891Z,95603.28
2023-04-03T03:36:26.779Z,95587.69
2023-04-03T03:41:29.106Z,95581.25
2023-04-03T03:46:31.954Z,95602.47
2023-04-03T03:51:34.448Z,95634.84
2023-04-03T03:56:37.036Z,95615.78
2023-04-03T04:01:39.519Z,95617.78
2023-04-03T04:06:44.650Z,95603.78
2023-04-03T04:11:47.903Z,95633.66
2023-04-03T04:16:55.024Z,95627.91
2023-04-03T04:22:01.129Z,95631.47
2023-04-03T04:27:08.567Z,95642.16
2023-04-03T04:32:11.757Z,95617.41
2023-04-03T04:37:14.465Z,95623.00
2023-04-03T04:42:18.123Z,95636.13
2023-04-03T04:47:23.385Z,95638.47
2023-04-03T04:52:26.913Z,95646.03
2023-04-03T04:57:29.414Z,95638.41
2023-04-03T05:02:34.317Z,95678.53
2023-04-03T05:07:37.033Z,95668.22
2023-04-03T05:12:39.674Z,95647.56
2023-04-03T05:17:42.165Z,95689.50
2023-04-03T05:22:47.900Z,95649.63
2023-04-03T05:27:51.388Z,95648.59
2023-04-03T05:32:54.143Z,95655.88
2023-04-03T05:38:16.383Z,95624.47
2023-04-03T05:43:19.520Z,95665.19
2023-04-03T05:48:22.038Z,95621.13
2023-04-03T05:53:29.612Z,95653.56
2023-04-03T05:58:37.948Z,95609.56
2023-04-03T06:03:41.437Z,95628.03
2023-04-03T06:08:47.505Z,95622.31
2023-04-03T06:13:49.992Z,95642.38
2023-04-03T06:18:54.584Z,95626.94
2023-04-03T06:23:57.180Z,95633.13
2023-04-03T06:28:59.618Z,95652.13
2023-04-03T06:34:02.652Z,95620.81
2023-04-03T06:39:08.508Z,95614.84
2023-04-03T06:44:12.339Z,95642.97
2023-04-03T06:49:14.774Z,95620.03
2023-04-03T06:54:53.419Z,95620.81
2023-04-03T07:00:15.263Z,95632.13
2023-04-03T07:05:19.930Z,95625.03
2023-04-03T07:10:24.964Z,95635.47
2023-04-03T07:15:31.219Z,95649.22
2023-04-03T07:20:33.723Z,95637.09
2023-04-03T07:25:46.091Z,95624.91
2023-04-03T07:30:54.596Z,95645.13
2023-04-03T07:36:13.544Z,95654.72
2023-04-03T07:41:22.574Z,95635.28
2023-04-03T07:46:28.079Z,95645.59
2023-04-03T07:51:31.160Z,95631.78
2023-04-03T07:56:33.725Z,95636.28
2023-04-03T08:01:35.999Z,95634.13
2023-04-03T08:06:46.272Z,95621.22
2023-04-03T08:11:49.600Z,95612.16
2023-04-03T08:16:52.047Z,95636.22
2023-04-03T08:21:55.976Z,95616.47
2023-04-03T08:26:59.666Z,95604.47
2023-04-03T08:32:02.085Z,95592.66
2023-04-03T08:37:04.595Z,95584.69
2023-04-03T08:42:17.132Z,95613.78
2023-04-03T08:47:56.519Z,95615.41
2023-04-03T08:53:06.800Z,95586.41
2023-04-03T08:58:22.948Z,95580.09
2023-04-03T09:03:26.751Z,95573.75
2023-04-03T09:09:08.350Z,95596.56
2023-04-03T09:14:33.259Z,95589.44
2023-04-03T09:19:59.464Z,95591.97
2023-04-03T09:25:24.460Z,95569.56
2023-04-03T09:30:28.880Z,95572.50
2023-04-03T09:35:44.652Z,95560.78
2023-04-03T09:41:05.002Z,95562.81
2023-04-03T09:46:29.650Z,95567.19
2023-04-03T09:57:16.169Z,95552.13
2023-04-03T10:02:32.544Z,95564.47
2023-04-03T10:07:38.857Z,95551.53
2023-04-03T10:12:41.280Z,95560.88
2023-04-03T10:17:43.872Z,95555.00
2023-04-03T10:23:19.254Z,95538.19
2023-04-03T10:28:48.530Z,95548.59
2023-04-03T10:34:28.395Z,95547.72
2023-04-03T10:39:50.696Z,95548.91
2023-04-03T10:44:59.048Z,95531.72
2023-04-03T10:50:26.386Z,95528.13
2023-04-03T10:56:09.715Z,95504.38
2023-04-03T11:01:21.880Z,95506.72
2023-04-03T11:06:28.033Z,95495.88
2023-04-03T11:11:40.170Z,95457.16
2023-04-03T11:16:54.086Z,95491.88
2023-04-03T11:22:10.153Z,95475.19
2023-04-03T11:27:24.037Z,95494.31
2023-04-03T11:32:38.828Z,95491.75
2023-04-03T11:37:53.220Z,95492.22
2023-04-03T11:43:06.779Z,95496.69
2023-04-03T11:48:32.956Z,95515.91
2023-04-03T11:53:40.502Z,95537.22
2023-04-03T11:59:14.936Z,95550.69
2023-04-03T12:04:22.005Z,95525.38
2023-04-03T12:09:53.470Z,95546.75
2023-04-03T12:14:56.216Z,95536.66
2023-04-03T12:19:58.900Z,95524.47
2023-04-03T12:25:41.329Z,95527.75
2023-04-03T12:30:45.439Z,95521.44
2023-04-03T12:36:12.629Z,95523.81
2023-04-03T12:41:33.727Z,95491.47
2023-04-03T12:46:45.420Z,95526.91
2023-04-03T12:51:48.693Z,95526.50
2023-04-03T12:57:11.966Z,95484.97
2023-04-03T13:02:27.016Z,95456.09
2023-04-03T13:07:42.064Z,95474.34
2023-04-03T13:12:55.847Z,95472.78
2023-04-03T13:17:58.512Z,95475.22
2023-04-03T13:23:06.308Z,95479.13
2023-04-03T13:28:14.351Z,95478.03
2023-04-03T13:33:25.668Z,95466.66
2023-04-03T13:38:35.130Z,95476.59
2023-04-03T13:43:39.290Z,95451.13
2023-04-03T13:48:49.308Z,95438.91
2023-04-03T13:53:58.882Z,95475.69
2023-04-03T13:59:06.359Z,95435.31
2023-04-03T14:04:25.490Z,95465.66
2023-04-03T14:09:29.128Z,95466.78
2023-04-03T14:14:34.054Z,95482.78
2023-04-03T14:19:37.454Z,95451.72
2023-04-03T14:24:48.020Z,95484.75
2023-04-03T14:29:52.955Z,95441.78
2023-04-03T14:34:56.870Z,95482.59
2023-04-03T14:40:02.038Z,95425.38
2023-04-03T14:45:10.319Z,95442.25
2023-04-03T14:50:17.221Z,95441.66
2023-04-03T14:55:23.109Z,95464.69
2023-04-03T15:00:25.531Z,95444.50
2023-04-03T15:05:28.147Z,95455.03
2023-04-03T15:10:32.102Z,95463.31
2023-04-03T15:15:39.430Z,95440.56
2023-04-03T15:20:41.998Z,95421.81
2023-04-03T15:25:46.747Z,95425.25
2023-04-03T15:30:49.247Z,95423.16
2023-04-03T15:35:52.528Z,95414.44
2023-04-03T15:40:57.391Z,95391.41
2023-04-03T15:46:00.966Z,95396.94
2023-04-03T15:51:03.318Z,95399.09
2023-04-03T15:56:06.103Z,95415.00
2023-04-03T16:01:12.584Z,95419.91
2023-04-03T16:06:20.209Z,95420.53
2023-04-03T16:11:22.611Z,95403.41
2023-04-03T16:16:28.545Z,95421.50
2023-04-03T16:21:31.967Z,95391.47
2023-04-03T16:26:34.399Z,95386.28
2023-04-03T16:31:38.449Z,95406.19
2023-04-03T16:36:43.599Z,95391.72
2023-04-03T16:41:46.656Z,95389.44
2023-04-03T16:46:49.151Z,95376.50
2023-04-03T16:51:51.796Z,95334.78
2023-04-03T16:56:54.635Z,95330.03
2023-04-03T17:01:56.994Z,95360.34
2023-04-03T17:07:01.311Z,95325.53
2023-04-03T17:12:05.063Z,95319.13
2023-04-03T17:17:09.080Z,95309.69
2023-04-03T17:22:11.507Z,95322.56
2023-04-03T17:27:13.795Z,95289.59
2023-04-03T17:32:16.332Z,95328.19
2023-04-03T17:37:18.943Z,95364.66
2023-04-03T17:42:21.705Z,95360.72
2023-04-03T17:47:24.353Z,95337.75
2023-04-03T17:52:28.759Z,95340.94
2023-04-03T17:57:32.253Z,95312.47
2023-04-03T18:02:34.646Z,95314.94
2023-04-03T18:07:38.934Z,95295.94
2023-04-03T18:12:42.747Z,95287.53
2023-04-03T18:17:47.112Z,95270.13
2023-04-03T18:22:49.906Z,95257.34
2023-04-03T18:27:53.571Z,95267.03
2023-04-03T18:32:56.126Z,95241.16
2023-04-03T18:37:58.475Z,95240.78
2023-04-03T18:43:02.668Z,95255.50
2023-04-03T18:48:05.774Z,95215.88
2023-04-03T18:53:08.116Z,95251.66
2023-04-03T18:58:10.367Z,95237.19
2023-04-03T19:03:14.001Z,95182.03
2023-04-03T19:08:16.601Z,95199.69
2023-04-03T19:13:18.923Z,95164.06
2023-04-03T19:18:21.222Z,95175.19
2023-04-03T19:23:27.204Z,95171.56
2023-04-03T19:28:30.052Z,95140.13
2023-04-03T19:33:32.287Z,95183.16
2023-04-03T19:38:34.812Z,95168.97
2023-04-03T19:43:37.650Z,95172.06
2023-04-03T19:48:40.192Z,95134.19
2023-04-03T19:53:42.524Z,95135.88
2023-04-03T19:58:45.098Z,95200.94
2023-04-03T20:03:48.245Z,95161.34
2023-04-03T20:08:50.509Z,95121.13
2023-04-03T20:13:54.317Z,95171.63
2023-04-03T20:18:57.476Z,95113.78
2023-04-03T20:24:05.274Z,95142.97
2023-04-03T20:29:07.781Z,95092.72
2023-04-03T20:34:10.163Z,95101.38
2023-04-03T20:39:12.753Z,95117.66
2023-04-03T20:44:15.686Z,95100.88
2023-04-03T20:49:18.187Z,95094.25
2023-04-03T20:54:21.000Z,95107.09
2023-04-03T20:59:24.437Z,95076.13
2023-04-03T21:04:30.835Z,95075.38
2023-04-03T21:10:11.050Z,95076.69
2023-04-03T21:15:52.506Z,95091.03
2023-04-03T21:20:55.455Z,95091.47
2023-04-03T21:26:00.138Z,95070.75
2023-04-03T21:31:02.616Z,95078.16
2023-04-03T21:36:05.069Z,95077.50
2023-04-03T21:41:07.355Z,95078.22
2023-04-03T21:46:09.875Z,95073.22
2023-04-03T21:51:12.426Z,95060.34
2023-04-03T21:56:14.774Z,95081.00
2023-04-03T22:01:18.328Z,95082.25
2023-04-03T22:06:20.866Z,95063.88
2023-04-03T22:11:24.944Z,95040.03
2023-04-03T22:16:27.977Z,95009.91
2023-04-03T22:21:31.258Z,95046.94
2023-04-03T22:26:34.514Z,95027.94
2023-04-03T22:31:41.894Z,95025.28
2023-04-03T22:36:44.415Z,95046.34
2023-04-03T22:41:46.532Z,95050.03
2023-04-03T22:46:48.839Z,95069.59
2023-04-03T22:51:51.043Z,95103.06
2023-04-03T22:56:53.766Z,95070.84
2023-04-03T23:01:55.986Z,95069.47
2023-04-03T23:07:00.578Z,95048.41
2023-04-03T23:12:02.925Z,95070.19
2023-04-03T23:17:06.348Z,95089.00
2023-04-03T23:22:08.613Z,95046.81
2023-04-03T23:27:10.878Z,95052.41
2023-04-03T23:32:13.468Z,95048.69
2023-04-03T23:37:16.001Z,95054.81
2023-04-03T23:42:21.835Z,95049.78
2023-04-03T23:47:24.251Z,95029.78
2023-04-03T23:52:26.622Z,95018.19
2023-04-03T23:57:28.907Z,95029.41
